createdAt,value
2022-09-07T00:01:43.787Z,101384.13
2022-09-07T00:04:11.430Z,101381.97
2022-09-07T00:06:39.307Z,101388.28
2022-09-07T00:09:06.835Z,101383.75
2022-09-07T00:11:35.502Z,101380.16
2022-09-07T00:14:03.278Z,101386.97
2022-09-07T00:16:31.025Z,101394.81
2022-09-07T00:18:59.374Z,101393.19
2022-09-07T00:21:27.003Z,101390.97
2022-09-07T00:23:54.600Z,101393.63
2022-09-07T00:26:23.534Z,101393.28
2022-09-07T00:28:51.233Z,101385.81
2022-09-07T00:31:19.822Z,101397.59
2022-09-07T00:33:49.236Z,101396.97
2022-09-07T00:36:17.262Z,101393.84
2022-09-07T00:38:45.519Z,101390.69
2022-09-07T00:41:13.153Z,101394.16
2022-09-07T00:43:47.744Z,101384.09
2022-09-07T00:46:22.471Z,101391.94
2022-09-07T00:48:59.417Z,101394.16
2022-09-07T00:51:31.919Z,101393.53
2022-09-07T00:54:11.139Z,101390.78
2022-09-07T00:56:40.125Z,101385.28
2022-09-07T00:59:07.953Z,101383.06
2022-09-07T01:01:36.375Z,101381.53
2022-09-07T01:04:03.992Z,101380.25
2022-09-07T01:06:33.930Z,101384.25
2022-09-07T01:09:05.959Z,101379.06
2022-09-07T01:11:34.862Z,101383.47
2022-09-07T01:14:03.077Z,101378.53
2022-09-07T01:16:33.999Z,101379.22
2022-09-07T01:19:20.137Z,101368.94
2022-09-07T01:22:06.443Z,101380.94
2022-09-07T01:24:36.915Z,101377.91
2022-09-07T01:27:07.331Z,101379.25
2022-09-07T01:29:41.273Z,101375.06
2022-09-07T01:32:19.492Z,101381.00
2022-09-07T01:34:47.819Z,101378.53
2022-09-07T01:37:41.694Z,101378.44
2022-09-07T01:40:11.974Z,101385.72
2022-09-07T01:42:45.418Z,101385.22
2022-09-07T01:45:13.243Z,101382.59
2022-09-07T01:47:46.355Z,101385.44
2022-09-07T01:50:24.886Z,101389.25
2022-09-07T01:52:52.393Z,101386.16
2022-09-07T01:55:24.766Z,101378.66
2022-09-07T01:58:06.607Z,101381.69
2022-09-07T02:00:34.264Z,101385.91
2022-09-07T02:03:07.786Z,101389.50
2022-09-07T02:05:51.161Z,101389.03
2022-09-07T02:08:29.021Z,101387.66
2022-09-07T02:11:00.697Z,101382.13
2022-09-07T02:13:36.004Z,101381.13
2022-09-07T02:16:06.945Z,101381.56
2022-09-07T02:18:36.563Z,101380.44
2022-09-07T02:21:04.140Z,101390.56
2022-09-07T02:23:34.063Z,101387.28
2022-09-07T02:26:03.422Z,101377.78
2022-09-07T02:28:32.805Z,101379.34
2022-09-07T02:31:00.559Z,101376.81
2022-09-07T02:33:28.195Z,101375.69
2022-09-07T02:35:55.726Z,101379.75
2022-09-07T02:38:23.185Z,101373.66
2022-09-07T02:40:51.892Z,101380.38
2022-09-07T02:43:19.437Z,101382.75
2022-09-07T02:45:55.716Z,101381.66
2022-09-07T02:48:28.108Z,101391.50
2022-09-07T02:51:04.480Z,101385.41
2022-09-07T02:53:36.292Z,101381.38
2022-09-07T02:56:07.485Z,101379.97
2022-09-07T02:58:40.756Z,101384.50
2022-09-07T03:01:26.802Z,101383.41
2022-09-07T03:04:03.551Z,101382.28
2022-09-07T03:06:49.734Z,101380.75
2022-09-07T03:09:19.811Z,101384.00
2022-09-07T03:11:47.661Z,101390.59
2022-09-07T03:14:19.145Z,101385.09
2022-09-07T03:16:47.170Z,101387.69
2022-09-07T03:19:14.750Z,101388.06
2022-09-07T03:21:42.465Z,101400.88
2022-09-07T03:24:09.956Z,101401.75
2022-09-07T03:26:39.287Z,101406.81
2022-09-07T03:29:06.950Z,101394.31
2022-09-07T03:31:35.999Z,101402.84
2022-09-07T03:34:03.682Z,101406.09
2022-09-07T03:36:31.252Z,101407.41
2022-09-07T03:38:59.506Z,101400.28
2022-09-07T03:41:27.264Z,101409.00
2022-09-07T03:43:54.734Z,101403.63
2022-09-07T03:46:22.515Z,101409.69
2022-09-07T03:48:50.517Z,101405.78
2022-09-07T03:51:18.209Z,101420.97
2022-09-07T03:53:46.250Z,101416.59
2022-09-07T03:56:14.846Z,101415.66
2022-09-07T03:58:42.728Z,101416.44
2022-09-07T04:01:11.645Z,101424.53
2022-09-07T04:03:39.756Z,101424.13
2022-09-07T04:06:07.351Z,101426.50
2022-09-07T04:08:35.579Z,101428.16
2022-09-07T04:11:03.932Z,101436.09
2022-09-07T04:13:32.050Z,101420.91
2022-09-07T04:15:59.859Z,101429.00
2022-09-07T04:18:27.371Z,101431.38
2022-09-07T04:20:58.382Z,101436.03
2022-09-07T04:23:25.898Z,101433.06
2022-09-07T04:25:53.519Z,101435.34
2022-09-07T04:28:21.063Z,101428.59
2022-09-07T04:30:48.663Z,101437.22
2022-09-07T04:33:16.380Z,101439.22
2022-09-07T04:35:44.029Z,101438.38
2022-09-07T04:38:15.257Z,101436.72
2022-09-07T04:40:43.031Z,101442.34
2022-09-07T04:43:13.259Z,101442.16
2022-09-07T04:45:40.999Z,101445.81
2022-09-07T04:48:08.460Z,101451.47
2022-09-07T04:50:36.335Z,101448.53
2022-09-07T04:53:04.020Z,101452.75
2022-09-07T04:55:31.882Z,101451.53
2022-09-07T04:57:59.477Z,101447.53
2022-09-07T05:00:27.392Z,101449.78
2022-09-07T05:02:55.117Z,101451.94
2022-09-07T05:05:22.658Z,101444.00
2022-09-07T05:07:50.548Z,101445.78
2022-09-07T05:10:18.477Z,101441.28
2022-09-07T05:12:47.302Z,101441.06
2022-09-07T05:15:15.890Z,101447.59
2022-09-07T05:17:43.542Z,101451.94
2022-09-07T05:20:11.099Z,101450.66
2022-09-07T05:22:41.288Z,101450.16
2022-09-07T05:25:08.965Z,101445.19
2022-09-07T05:27:36.646Z,101440.59
2022-09-07T05:30:05.184Z,101454.97
2022-09-07T05:32:33.902Z,101448.56
2022-09-07T05:35:01.553Z,101446.84
2022-09-07T05:37:29.118Z,101450.88
2022-09-07T05:39:57.209Z,101452.69
2022-09-07T05:42:24.839Z,101443.72
2022-09-07T05:44:53.275Z,101444.66
2022-09-07T05:47:20.851Z,101451.19
2022-09-07T05:49:48.598Z,101454.25
2022-09-07T05:52:16.134Z,101458.13
2022-09-07T05:54:43.752Z,101452.09
2022-09-07T05:57:11.768Z,101457.81
2022-09-07T05:59:39.480Z,101459.91
2022-09-07T06:02:07.464Z,101455.00
2022-09-07T06:04:35.360Z,101462.31
2022-09-07T06:07:21.159Z,101458.94
2022-09-07T06:12:37.983Z,101454.97
2022-09-07T06:15:06.093Z,101462.13
2022-09-07T06:17:34.144Z,101465.34
2022-09-07T06:20:01.731Z,101463.25
2022-09-07T06:22:31.236Z,101466.06
2022-09-07T06:24:59.200Z,101463.19
2022-09-07T06:27:26.965Z,101470.94
2022-09-07T06:29:54.716Z,101472.59
2022-09-07T06:35:10.380Z,101472.38
2022-09-07T06:37:38.650Z,101476.78
2022-09-07T06:40:06.601Z,101475.16
2022-09-07T06:42:34.419Z,101471.19
2022-09-07T06:45:03.670Z,101478.38
2022-09-07T06:47:31.696Z,101486.56
2022-09-07T06:50:01.804Z,101487.19
2022-09-07T06:52:30.150Z,101486.31
2022-09-07T06:55:17.672Z,101490.66
2022-09-07T06:57:45.527Z,101491.78
2022-09-07T07:00:13.414Z,101480.25
2022-09-07T07:02:40.982Z,101492.84
2022-09-07T07:05:08.664Z,101493.69
2022-09-07T07:07:36.288Z,101495.38
2022-09-07T07:10:03.999Z,101491.34
2022-09-07T07:14:59.208Z,101499.13
2022-09-07T07:17:27.593Z,101490.19
2022-09-07T07:19:55.414Z,101494.97
2022-09-07T07:22:46.063Z,101488.31
2022-09-07T07:25:10.439Z,101481.84
2022-09-07T07:27:38.188Z,101491.09
2022-09-07T07:30:06.474Z,101482.22
2022-09-07T07:32:35.195Z,101480.75
2022-09-07T07:35:02.731Z,101491.81
2022-09-07T07:37:32.413Z,101488.28
2022-09-07T07:40:17.577Z,101484.25
2022-09-07T07:42:47.637Z,101484.81
2022-09-07T07:48:02.928Z,101473.59
2022-09-07T07:50:31.437Z,101473.16
2022-09-07T07:55:47.913Z,101471.09
2022-09-07T07:58:15.641Z,101471.88
2022-09-07T08:00:54.146Z,101466.53
2022-09-07T08:03:22.797Z,101458.88
2022-09-07T08:05:50.471Z,101460.41
2022-09-07T08:08:18.126Z,101457.06
2022-09-07T08:10:47.373Z,101458.56
2022-09-07T08:13:15.402Z,101464.81
2022-09-07T08:15:45.543Z,101454.16
2022-09-07T08:18:13.427Z,101447.66
2022-09-07T08:20:42.591Z,101444.19
2022-09-07T08:23:13.510Z,101447.75
2022-09-07T08:25:52.744Z,101447.03
2022-09-07T08:28:21.769Z,101453.94
2022-09-07T08:30:49.268Z,101441.13
2022-09-07T08:33:16.848Z,101439.88
2022-09-07T08:36:00.443Z,101442.09
2022-09-07T08:38:31.030Z,101443.28
2022-09-07T08:40:59.162Z,101450.22
2022-09-07T08:43:49.003Z,101441.44
2022-09-07T08:46:28.498Z,101428.38
2022-09-07T08:48:59.839Z,101429.88
2022-09-07T08:51:37.481Z,101424.59
2022-09-07T08:54:05.239Z,101424.38
2022-09-07T08:56:38.210Z,101424.94
2022-09-07T08:59:22.851Z,101423.09
2022-09-07T09:05:16.171Z,101414.41
2022-09-07T09:07:45.361Z,101412.09
2022-09-07T09:10:16.486Z,101409.88
2022-09-07T09:13:23.297Z,101401.75
2022-09-07T09:16:09.632Z,101401.53
2022-09-07T09:18:50.655Z,101405.44
2022-09-07T09:21:18.883Z,101404.44
2022-09-07T09:23:50.192Z,101404.56
2022-09-07T09:26:22.776Z,101399.53
2022-09-07T09:28:50.703Z,101401.75
2022-09-07T09:31:19.516Z,101397.22
2022-09-07T09:34:05.741Z,101404.34
2022-09-07T09:36:34.551Z,101393.28
2022-09-07T09:39:03.338Z,101392.06
2022-09-07T09:41:38.190Z,101392.16
2022-09-07T09:44:06.290Z,101386.34
2022-09-07T09:46:34.587Z,101380.88
2022-09-07T09:49:04.017Z,101381.69
2022-09-07T09:54:21.745Z,101384.84
2022-09-07T09:56:49.802Z,101383.44
2022-09-07T10:05:26.513Z,101371.59
2022-09-07T10:07:54.106Z,101372.78
2022-09-07T10:10:21.683Z,101363.53
2022-09-07T10:12:51.795Z,101376.38
2022-09-07T10:15:40.584Z,101368.75
2022-09-07T10:18:15.934Z,101371.97
2022-09-07T10:20:44.035Z,101371.19
2022-09-07T10:26:42.134Z,101366.34
2022-09-07T10:29:14.606Z,101370.09
2022-09-07T10:31:47.007Z,101369.34
2022-09-07T10:34:26.748Z,101366.78
2022-09-07T10:36:57.399Z,101359.56
2022-09-07T10:39:45.362Z,101360.38
2022-09-07T10:42:22.515Z,101359.06
2022-09-07T10:44:56.445Z,101355.63
2022-09-07T10:47:29.854Z,101354.81
2022-09-07T10:52:50.582Z,101349.38
2022-09-07T10:55:20.755Z,101359.06
2022-09-07T10:58:00.559Z,101350.75
2022-09-07T11:00:29.933Z,101346.44
2022-09-07T11:06:01.971Z,101348.72
2022-09-07T11:12:03.638Z,101355.22
2022-09-07T11:14:58.019Z,101353.09
2022-09-07T11:17:26.432Z,101342.41
2022-09-07T11:19:54.899Z,101345.63
2022-09-07T11:22:33.504Z,101357.13
2022-09-07T11:27:54.821Z,101337.13
2022-09-07T11:30:23.330Z,101334.88
2022-09-07T11:33:09.589Z,101339.06
2022-09-07T11:35:39.885Z,101333.13
2022-09-07T11:38:30.507Z,101331.88
2022-09-07T11:41:06.963Z,101337.19
2022-09-07T11:43:38.469Z,101330.75
2022-09-07T11:46:08.261Z,101328.00
2022-09-07T11:48:36.409Z,101331.97
2022-09-07T11:51:06.225Z,101323.19
2022-09-07T11:53:34.909Z,101332.63
2022-09-07T11:56:05.679Z,101329.69
2022-09-07T11:58:36.468Z,101326.44
2022-09-07T12:01:16.584Z,101318.25
2022-09-07T12:03:44.331Z,101325.31
2022-09-07T12:06:33.645Z,101321.94
2022-09-07T12:09:20.276Z,101324.75
2022-09-07T12:11:47.722Z,101327.31
2022-09-07T12:14:23.612Z,101317.47
2022-09-07T12:17:09.800Z,101320.16
2022-09-07T12:19:37.523Z,101323.53
2022-09-07T12:22:05.554Z,101320.75
2022-09-07T12:27:01.383Z,101314.47
2022-09-07T12:29:29.179Z,101304.88
2022-09-07T12:31:58.601Z,101320.03
2022-09-07T12:34:30.009Z,101306.47
2022-09-07T12:37:01.067Z,101296.63
2022-09-07T12:39:33.091Z,101302.09
2022-09-07T12:45:14.851Z,101301.72
2022-09-07T12:47:42.214Z,101311.00
2022-09-07T12:50:21.338Z,101302.31
2022-09-07T12:52:50.028Z,101303.34
2022-09-07T12:55:28.562Z,101300.34
2022-09-07T12:58:06.286Z,101299.03
2022-09-07T13:00:44.407Z,101292.47
2022-09-07T13:07:01.711Z,101288.81
2022-09-07T13:09:22.368Z,101286.19
2022-09-07T13:11:49.925Z,101287.44
2022-09-07T13:14:19.511Z,101287.16
2022-09-07T13:19:46.909Z,101289.91
2022-09-07T13:22:29.736Z,101296.84
2022-09-07T13:24:59.680Z,101291.16
2022-09-07T13:27:29.169Z,101288.88
2022-09-07T13:29:56.724Z,101288.28
2022-09-07T13:35:26.831Z,101287.84
2022-09-07T13:38:03.458Z,101271.47
2022-09-07T13:40:32.326Z,101279.47
2022-09-07T13:42:59.895Z,101273.88
2022-09-07T13:45:33.568Z,101273.53
2022-09-07T13:48:01.697Z,101272.41
2022-09-07T13:50:42.746Z,101274.19
2022-09-07T13:53:16.315Z,101271.78
2022-09-07T13:55:46.630Z,101273.38
2022-09-07T13:58:18.129Z,101273.38
2022-09-07T14:00:50.309Z,101275.09
2022-09-07T14:03:17.949Z,101266.25
2022-09-07T14:05:46.200Z,101264.38
2022-09-07T14:08:24.521Z,101267.13
2022-09-07T14:10:52.175Z,101267.25
2022-09-07T14:13:19.825Z,101258.84
2022-09-07T14:15:50.267Z,101268.13
2022-09-07T14:18:19.851Z,101268.88
2022-09-07T14:20:48.398Z,101264.94
2022-09-07T14:23:30.391Z,101258.97
2022-09-07T14:26:20.195Z,101266.03
2022-09-07T14:28:48.520Z,101264.09
2022-09-07T14:31:16.694Z,101265.53
2022-09-07T14:33:54.329Z,101256.13
2022-09-07T14:36:43.573Z,101256.72
2022-09-07T14:39:10.954Z,101261.56
2022-09-07T14:41:40.112Z,101262.56
2022-09-07T14:44:09.104Z,101259.06
2022-09-07T14:46:37.074Z,101260.69
2022-09-07T14:49:18.161Z,101258.28
2022-09-07T14:51:48.338Z,101258.41
2022-09-07T14:54:18.205Z,101260.94
2022-09-07T14:56:49.263Z,101262.47
2022-09-07T14:59:36.820Z,101267.19
2022-09-07T15:02:20.082Z,101258.81
2022-09-07T15:04:48.769Z,101262.13
2022-09-07T15:07:34.969Z,101256.50
2022-09-07T15:10:21.014Z,101255.16
2022-09-07T15:12:55.287Z,101261.81
2022-09-07T15:15:26.337Z,101257.38
2022-09-07T15:17:55.076Z,101266.09
2022-09-07T15:20:37.969Z,101250.41
2022-09-07T15:23:06.563Z,101253.09
2022-09-07T15:25:34.701Z,101252.91
2022-09-07T15:28:02.476Z,101245.66
2022-09-07T15:30:30.841Z,101245.09
2022-09-07T15:33:00.046Z,101248.75
2022-09-07T15:35:27.611Z,101242.63
2022-09-07T15:38:04.750Z,101238.72
2022-09-07T15:40:56.393Z,101244.06
2022-09-07T15:43:28.557Z,101240.69
2022-09-07T15:45:56.445Z,101241.81
2022-09-07T15:48:27.290Z,101248.88
2022-09-07T15:51:00.923Z,101239.34
2022-09-07T15:56:16.394Z,101240.75
2022-09-07T15:58:44.353Z,101238.50
2022-09-07T16:03:59.785Z,101237.09
2022-09-07T16:06:27.424Z,101237.13
2022-09-07T16:08:55.135Z,101235.69
2022-09-07T16:11:26.408Z,101248.56
2022-09-07T16:14:02.168Z,101240.47
2022-09-07T16:19:21.029Z,101256.69
2022-09-07T16:21:57.630Z,101269.81
2022-09-07T16:24:28.179Z,101269.53
2022-09-07T16:26:57.154Z,101268.44
2022-09-07T16:29:25.286Z,101268.41
2022-09-07T16:34:41.392Z,101268.34
2022-09-07T16:37:08.894Z,101272.28
2022-09-07T16:39:37.537Z,101281.22
2022-09-07T16:42:05.173Z,101280.88
2022-09-07T16:44:35.242Z,101281.13
2022-09-07T16:47:04.533Z,101279.09
2022-09-07T16:49:32.305Z,101291.22
2022-09-07T16:52:00.292Z,101285.53
2022-09-07T16:54:28.105Z,101288.91
2022-09-07T16:56:55.645Z,101297.63
2022-09-07T16:59:26.810Z,101297.28
2022-09-07T17:01:54.306Z,101292.41
2022-09-07T17:04:22.213Z,101298.47
2022-09-07T17:06:52.700Z,101300.94
2022-09-07T17:09:26.430Z,101291.22
2022-09-07T17:11:54.047Z,101298.66
2022-09-07T17:14:21.644Z,101297.41
2022-09-07T17:16:50.430Z,101295.84
2022-09-07T17:19:33.478Z,101303.38
2022-09-07T17:22:02.787Z,101292.78
2022-09-07T17:24:32.252Z,101302.47
2022-09-07T17:27:00.598Z,101304.44
2022-09-07T17:29:30.618Z,101303.66
2022-09-07T17:34:47.323Z,101309.97
2022-09-07T17:37:14.999Z,101310.78
2022-09-07T17:39:42.661Z,101313.13
2022-09-07T17:42:10.399Z,101315.25
2022-09-07T17:44:38.535Z,101310.31
2022-09-07T17:47:06.948Z,101317.25
2022-09-07T17:49:35.726Z,101313.75
2022-09-07T17:52:03.290Z,101310.28
2022-09-07T17:54:31.230Z,101316.00
2022-09-07T17:56:58.917Z,101310.63
2022-09-07T18:02:14.674Z,101320.94
2022-09-07T18:04:43.162Z,101320.94
2022-09-07T18:07:10.938Z,101317.63
2022-09-07T18:09:39.792Z,101323.84
2022-09-07T18:12:07.452Z,101317.97
2022-09-07T18:14:35.449Z,101322.19
2022-09-07T18:17:12.205Z,101322.88
2022-09-07T18:19:40.153Z,101315.66
2022-09-07T18:22:08.829Z,101328.97
2022-09-07T18:24:36.828Z,101324.94
2022-09-07T18:27:04.941Z,101323.97
2022-09-07T18:29:34.433Z,101322.19
2022-09-07T18:32:03.421Z,101316.81
2022-09-07T18:34:31.765Z,101323.97
2022-09-07T18:37:00.055Z,101316.72
2022-09-07T18:39:27.705Z,101317.47
2022-09-07T18:41:55.325Z,101321.50
2022-09-07T18:47:23.370Z,101320.56
2022-09-07T18:49:55.494Z,101322.00
2022-09-07T18:55:10.618Z,101320.22
2022-09-07T18:57:38.667Z,101318.09
2022-09-07T19:00:09.316Z,101316.75
2022-09-07T19:02:37.921Z,101322.56
2022-09-07T19:07:53.689Z,101313.53
2022-09-07T19:10:21.292Z,101320.44
2022-09-07T19:12:50.474Z,101313.25
2022-09-07T19:15:18.147Z,101308.56
2022-09-07T19:17:46.181Z,101312.44
2022-09-07T19:20:13.880Z,101314.53
2022-09-07T19:22:43.062Z,101313.72
2022-09-07T19:25:10.693Z,101314.53
2022-09-07T19:27:38.169Z,101315.63
2022-09-07T19:30:06.006Z,101312.56
2022-09-07T19:32:33.888Z,101305.38
2022-09-07T19:35:01.365Z,101305.00
2022-09-07T19:37:32.013Z,101304.75
2022-09-07T19:39:59.778Z,101304.75
2022-09-07T19:42:27.761Z,101308.28
2022-09-07T19:44:55.188Z,101305.88
2022-09-07T19:47:23.447Z,101310.00
2022-09-07T19:49:52.352Z,101311.22
2022-09-07T19:52:20.959Z,101315.84
2022-09-07T19:54:49.862Z,101310.28
2022-09-07T19:57:17.332Z,101310.06
2022-09-07T19:59:45.826Z,101306.44
2022-09-07T20:02:13.554Z,101316.09
2022-09-07T20:04:40.981Z,101306.31
2022-09-07T20:07:08.368Z,101309.72
2022-09-07T20:09:37.957Z,101299.56
2022-09-07T20:12:07.814Z,101298.72
2022-09-07T20:14:35.957Z,101302.09
2022-09-07T20:17:03.831Z,101306.97
2022-09-07T20:19:31.379Z,101313.34
2022-09-07T20:21:58.900Z,101301.28
2022-09-07T20:24:26.717Z,101307.31
2022-09-07T20:26:54.156Z,101305.25
2022-09-07T20:29:29.342Z,101306.00
2022-09-07T20:31:58.234Z,101304.03
2022-09-07T20:34:27.272Z,101302.97
2022-09-07T20:36:54.792Z,101302.44
2022-09-07T20:39:22.272Z,101296.69
2022-09-07T20:41:49.816Z,101298.97
2022-09-07T20:44:17.331Z,101299.22
2022-09-07T20:46:45.105Z,101300.66
2022-09-07T20:49:13.016Z,101304.78
2022-09-07T20:51:40.431Z,101293.81
2022-09-07T20:54:08.108Z,101295.34
2022-09-07T20:56:35.871Z,101286.91
2022-09-07T20:59:03.763Z,101292.47
2022-09-07T21:01:31.453Z,101283.03
2022-09-07T21:03:59.305Z,101280.97
2022-09-07T21:06:27.622Z,101282.09
2022-09-07T21:08:56.204Z,101285.63
2022-09-07T21:11:24.772Z,101288.09
2022-09-07T21:13:59.875Z,101282.44
2022-09-07T21:16:29.832Z,101283.25
2022-09-07T21:18:58.218Z,101278.44
2022-09-07T21:21:26.720Z,101283.16
2022-09-07T21:23:58.079Z,101287.28
2022-09-07T21:26:26.040Z,101287.88
2022-09-07T21:29:03.537Z,101276.44
2022-09-07T21:31:31.745Z,101288.13
2022-09-07T21:33:59.892Z,101289.28
2022-09-07T21:36:27.465Z,101286.72
2022-09-07T21:38:54.922Z,101279.28
2022-09-07T21:41:23.085Z,101281.50
2022-09-07T21:43:54.309Z,101287.06
2022-09-07T21:46:21.815Z,101285.56
2022-09-07T21:48:49.449Z,101279.28
2022-09-07T21:51:17.065Z,101281.88
2022-09-07T21:53:45.269Z,101284.41
2022-09-07T21:56:13.289Z,101274.88
2022-09-07T21:58:40.965Z,101273.25
2022-09-07T22:01:10.768Z,101267.06
2022-09-07T22:03:38.989Z,101280.97
2022-09-07T22:06:06.939Z,101277.00
2022-09-07T22:08:34.882Z,101271.44
2022-09-07T22:11:06.386Z,101265.00
2022-09-07T22:13:34.515Z,101263.38
2022-09-07T22:16:03.615Z,101265.41
2022-09-07T22:18:31.200Z,101265.16
2022-09-07T22:21:02.467Z,101259.72
2022-09-07T22:23:31.175Z,101261.44
2022-09-07T22:25:58.687Z,101258.53
2022-09-07T22:28:28.504Z,101260.00
2022-09-07T22:30:56.314Z,101249.19
2022-09-07T22:33:23.857Z,101251.81
2022-09-07T22:35:51.865Z,101254.06
2022-09-07T22:38:19.563Z,101252.03
2022-09-07T22:40:47.416Z,101236.31
2022-09-07T22:43:15.044Z,101238.75
2022-09-07T22:45:42.439Z,101242.03
2022-09-07T22:48:09.920Z,101241.00
2022-09-07T22:50:37.626Z,101237.59
2022-09-07T22:53:05.295Z,101242.09
2022-09-07T22:55:32.736Z,101236.91
2022-09-07T22:58:00.232Z,101236.78
2022-09-07T23:00:27.552Z,101237.84
2022-09-07T23:02:55.022Z,101233.19
2022-09-07T23:05:22.375Z,101234.50
2022-09-07T23:07:50.277Z,101230.69
2022-09-07T23:10:17.882Z,101232.09
2022-09-07T23:12:47.811Z,101232.53
2022-09-07T23:15:15.316Z,101228.47
2022-09-07T23:17:42.705Z,101219.44
2022-09-07T23:20:10.309Z,101219.78
2022-09-07T23:22:37.639Z,101214.53
2022-09-07T23:25:05.347Z,101215.72
2022-09-07T23:27:33.694Z,101221.16
2022-09-07T23:30:01.234Z,101222.28
2022-09-07T23:32:28.612Z,101219.81
2022-09-07T23:34:56.803Z,101217.03
2022-09-07T23:37:24.332Z,101213.41
2022-09-07T23:39:52.335Z,101220.09
2022-09-07T23:42:19.785Z,101215.06
2022-09-07T23:44:48.667Z,101223.38
2022-09-07T23:47:16.228Z,101220.94
2022-09-07T23:49:43.745Z,101221.94
2022-09-07T23:52:11.259Z,101217.25
2022-09-07T23:54:39.159Z,101202.91
2022-09-07T23:57:06.590Z,101210.59
2022-09-07T23:59:34.082Z,101205.25
